createdAt,value
2023-01-23T04:12:13.039Z,46.33
2023-01-23T04:14:45.428Z,49.63
2023-01-23T04:17:16.394Z,46.23
2023-01-23T04:19:46.144Z,47.73
2023-01-23T04:22:14.852Z,48.40
2023-01-23T04:24:52.958Z,43.83
2023-01-23T04:27:25.484Z,41.57
2023-01-23T04:29:58.583Z,53.73
2023-01-23T04:32:28.709Z,42.90
2023-01-23T04:35:00.545Z,46.47
2023-01-23T04:37:37.409Z,46.07
2023-01-23T04:40:06.786Z,43.40
2023-01-23T04:42:46.217Z,42.60
2023-01-23T04:45:38.445Z,44.73
2023-01-23T04:48:28.482Z,42.90
2023-01-23T04:50:59.175Z,43.60
2023-01-23T04:53:34.677Z,46.97
2023-01-23T04:56:04.639Z,52.20
2023-01-23T04:58:36.932Z,46.10
2023-01-23T05:01:08.322Z,47.47
2023-01-23T05:03:39.761Z,44.83
2023-01-23T05:06:10.449Z,43.17
2023-01-23T05:08:41.191Z,45.50
2023-01-23T05:11:30.222Z,44.87
2023-01-23T05:14:04.343Z,48.20
2023-01-23T05:16:33.760Z,45.27
2023-01-23T05:19:16.996Z,48.17
2023-01-23T05:21:45.847Z,46.53
2023-01-23T05:24:18.632Z,42.30
2023-01-23T05:26:47.383Z,49.27
2023-01-23T05:29:19.388Z,50.37
2023-01-23T05:32:03.545Z,51.50
2023-01-23T05:34:40.813Z,49.40
2023-01-23T05:37:20.474Z,49.37
2023-01-23T05:39:52.813Z,52.70
2023-01-23T05:42:24.535Z,53.83
2023-01-23T05:45:06.320Z,54.20
2023-01-23T05:47:41.823Z,51.73
2023-01-23T05:50:28.194Z,47.23
2023-01-23T05:53:20.419Z,45.40
2023-01-23T05:55:56.568Z,47.53
2023-01-23T05:58:41.118Z,42.80
2023-01-23T06:01:49.804Z,46.10
2023-01-23T06:05:32.282Z,42.70
2023-01-23T06:08:29.715Z,49.03
2023-01-23T06:11:06.743Z,54.60
2023-01-23T06:13:52.317Z,45.70
2023-01-23T06:16:22.345Z,45.63
2023-01-23T06:18:56.589Z,51.40
2023-01-23T06:21:25.268Z,51.70
2023-01-23T06:23:56.745Z,44.17
2023-01-23T06:26:29.510Z,58.93
2023-01-23T06:28:59.202Z,48.00
2023-01-23T06:31:35.265Z,46.63
2023-01-23T06:34:10.998Z,48.87
2023-01-23T06:36:58.446Z,48.87
2023-01-23T06:39:28.346Z,46.37
2023-01-23T06:41:57.024Z,56.50
2023-01-23T06:44:38.959Z,43.53
2023-01-23T06:47:28.243Z,44.73
2023-01-23T06:50:18.565Z,43.23
2023-01-23T06:52:55.165Z,48.20
2023-01-23T06:55:36.407Z,45.97
2023-01-23T06:58:10.005Z,46.53
2023-01-23T07:04:09.991Z,44.50
2023-01-23T07:07:08.967Z,47.63
2023-01-23T07:09:47.366Z,47.37
2023-01-23T07:12:30.751Z,47.37
2023-01-23T07:15:16.370Z,55.43
2023-01-23T07:18:15.881Z,44.47
2023-01-23T07:20:50.361Z,48.27
2023-01-23T07:23:31.908Z,50.53
2023-01-23T07:26:10.936Z,46.83
2023-01-23T07:29:03.236Z,50.30
2023-01-23T07:31:35.739Z,50.73
2023-01-23T07:34:04.638Z,48.43
2023-01-23T07:36:34.942Z,49.43
2023-01-23T07:39:11.200Z,56.13
2023-01-23T07:41:46.976Z,39.80
2023-01-23T07:44:27.186Z,41.47
2023-01-23T07:47:04.130Z,46.63
2023-01-23T07:49:40.205Z,47.03
2023-01-23T07:52:14.700Z,49.67
2023-01-23T07:54:58.755Z,47.77
2023-01-23T07:57:33.388Z,48.47
2023-01-23T08:00:19.848Z,50.03
2023-01-23T08:02:55.641Z,53.70
2023-01-23T08:05:38.861Z,52.47
2023-01-23T08:08:14.069Z,45.30
2023-01-23T08:10:50.079Z,43.00
2023-01-23T08:13:36.825Z,41.33
2023-01-23T08:16:06.274Z,43.83
2023-01-23T08:19:06.530Z,43.93
2023-01-23T08:21:44.752Z,38.90
2023-01-23T08:24:15.447Z,38.17
2023-01-23T08:26:56.547Z,37.20
2023-01-23T08:29:31.442Z,38.27
2023-01-23T08:32:05.125Z,37.27
2023-01-23T08:34:40.731Z,40.73
2023-01-23T08:37:15.438Z,34.73
2023-01-23T08:39:59.961Z,40.87
2023-01-23T08:42:51.261Z,41.10
2023-01-23T08:45:27.138Z,42.53
2023-01-23T08:47:55.806Z,40.27
2023-01-23T08:50:27.397Z,38.47
2023-01-23T08:52:58.499Z,36.47
2023-01-23T08:55:30.436Z,41.03
2023-01-23T08:58:15.054Z,37.83
2023-01-23T09:00:51.660Z,38.93
2023-01-23T09:03:25.640Z,36.37
2023-01-23T09:06:01.919Z,40.30
2023-01-23T09:08:48.936Z,34.77
2023-01-23T09:11:29.349Z,40.10
2023-01-23T09:14:27.244Z,44.33
2023-01-23T09:17:00.647Z,41.43
2023-01-23T09:19:35.451Z,40.03
2023-01-23T09:22:07.002Z,42.80
2023-01-23T09:24:54.488Z,39.30
2023-01-23T09:27:26.216Z,43.10
2023-01-23T09:30:11.883Z,51.37
2023-01-23T09:32:44.676Z,44.87
2023-01-23T09:35:21.115Z,41.47
2023-01-23T09:38:07.288Z,46.23
2023-01-23T09:40:47.798Z,45.23
2023-01-23T09:43:26.918Z,46.13
2023-01-23T09:46:09.028Z,46.43
2023-01-23T09:48:57.831Z,42.40
2023-01-23T09:51:43.099Z,49.40
2023-01-23T09:54:23.798Z,47.07
2023-01-23T09:56:57.353Z,50.83
2023-01-23T09:59:53.873Z,45.90
2023-01-23T10:02:47.947Z,50.97
2023-01-23T10:05:21.285Z,54.00
2023-01-23T10:08:13.825Z,49.20
2023-01-23T10:11:07.299Z,50.07
2023-01-23T10:13:49.129Z,56.17
2023-01-23T10:16:50.115Z,52.23
2023-01-23T10:19:50.635Z,45.23
2023-01-23T10:22:44.703Z,47.30
2023-01-23T10:25:21.552Z,40.93
2023-01-23T10:28:13.828Z,44.90
2023-01-23T10:30:47.846Z,49.83
2023-01-23T10:33:45.671Z,44.77
2023-01-23T10:36:30.452Z,50.70
2023-01-23T10:39:19.457Z,52.23
2023-01-23T10:42:02.067Z,45.57
2023-01-23T10:44:32.611Z,43.47
2023-01-23T10:47:06.354Z,45.37
2023-01-23T10:49:39.940Z,46.90
2023-01-23T10:52:34.295Z,47.90
2023-01-23T10:55:31.974Z,46.17
2023-01-23T10:58:03.860Z,43.83
2023-01-23T11:00:41.584Z,41.03
2023-01-23T11:03:28.727Z,46.30
2023-01-23T11:06:05.811Z,39.33
2023-01-23T11:08:54.086Z,42.83
2023-01-23T11:11:32.616Z,35.57
2023-01-23T11:14:15.589Z,34.43
2023-01-23T11:17:17.532Z,36.43
2023-01-23T11:20:25.893Z,34.17
2023-01-23T11:23:11.794Z,33.53
2023-01-23T11:26:00.242Z,36.17
2023-01-23T11:28:31.304Z,33.10
2023-01-23T11:31:15.395Z,37.67
2023-01-23T11:33:56.385Z,38.57
2023-01-23T11:36:40.862Z,38.80
2023-01-23T11:39:36.100Z,35.87
2023-01-23T11:42:17.410Z,31.43
2023-01-23T11:44:50.074Z,36.83
2023-01-23T11:47:49.147Z,31.30
2023-01-23T11:50:49.990Z,32.23
2023-01-23T11:53:42.279Z,32.73
2023-01-23T11:56:49.186Z,30.90
2023-01-23T12:00:01.372Z,35.00
2023-01-23T12:03:04.395Z,34.10
2023-01-23T12:09:14.847Z,32.67
2023-01-23T12:12:03.379Z,32.77
2023-01-23T12:15:05.232Z,39.40
2023-01-23T12:18:02.952Z,41.00
2023-01-23T12:20:51.974Z,37.30
2023-01-23T12:23:53.217Z,30.80
2023-01-23T12:26:42.412Z,35.13
2023-01-23T12:29:53.799Z,34.73
2023-01-23T12:32:54.247Z,34.13
2023-01-23T12:36:21.097Z,34.60
2023-01-23T12:39:33.931Z,30.47
2023-01-23T12:42:48.300Z,33.77
2023-01-23T12:45:29.053Z,28.10
2023-01-23T12:48:13.567Z,31.77
2023-01-23T12:51:06.840Z,32.57
2023-01-23T12:53:52.784Z,34.53
2023-01-23T12:56:26.528Z,33.27
2023-01-23T12:59:10.764Z,32.97
2023-01-23T13:02:00.052Z,30.47
2023-01-23T13:04:59.258Z,34.57
2023-01-23T13:07:47.038Z,34.30
2023-01-23T13:10:50.053Z,32.50
2023-01-23T13:13:27.941Z,32.77
2023-01-23T13:16:14.593Z,29.67
2023-01-23T13:19:13.217Z,34.23
2023-01-23T13:22:06.810Z,36.50
2023-01-23T13:25:14.176Z,32.60
2023-01-23T13:27:49.323Z,32.67
2023-01-23T13:30:43.865Z,30.73
2023-01-23T13:34:15.992Z,34.67
2023-01-23T13:36:54.144Z,37.00
2023-01-23T13:39:29.847Z,35.73
2023-01-23T13:42:40.669Z,36.47
2023-01-23T13:45:33.336Z,34.50
2023-01-23T14:25:57.030Z,39.77
2023-01-23T14:28:26.704Z,38.03
2023-01-23T14:31:33.587Z,36.53
2023-01-23T14:34:09.609Z,37.43
2023-01-23T14:36:48.269Z,40.00
2023-01-23T14:39:21.800Z,39.87
2023-01-23T14:41:54.878Z,36.90
2023-01-23T14:44:28.597Z,37.33
2023-01-23T14:47:05.196Z,36.07
2023-01-23T14:49:38.447Z,37.00
2023-01-23T14:52:27.297Z,37.37
2023-01-23T14:55:07.517Z,41.03
2023-01-23T14:57:53.738Z,39.20
2023-01-23T15:00:26.236Z,35.23
2023-01-23T15:02:57.546Z,37.60
2023-01-23T15:05:33.744Z,42.73
2023-01-23T15:08:34.401Z,39.87
2023-01-23T15:11:13.278Z,42.33
2023-01-23T15:14:03.335Z,33.80
2023-01-23T15:16:38.272Z,35.73
2023-01-23T15:19:21.520Z,34.37
2023-01-23T15:22:07.693Z,36.33
2023-01-23T15:24:55.567Z,38.93
2023-01-23T15:27:49.593Z,35.20
2023-01-23T15:31:05.484Z,38.13
2023-01-23T15:33:59.505Z,36.30
2023-01-23T15:36:46.535Z,38.33
2023-01-23T15:39:44.170Z,42.93
2023-01-23T15:42:29.961Z,36.13
2023-01-23T15:45:03.892Z,39.03
2023-01-23T15:47:37.951Z,40.23
2023-01-23T15:50:18.792Z,42.57
2023-01-23T15:52:52.954Z,40.07
2023-01-23T15:55:32.517Z,42.40
2023-01-23T15:58:13.880Z,39.57
2023-01-23T16:00:55.073Z,47.83
2023-01-23T16:03:25.287Z,43.63
2023-01-23T16:06:04.557Z,51.10
2023-01-23T16:08:35.463Z,44.70
2023-01-23T16:11:08.743Z,42.10
2023-01-23T16:13:45.945Z,43.83
2023-01-23T16:16:19.598Z,48.83
2023-01-23T16:18:52.469Z,52.23
2023-01-23T16:21:28.304Z,51.50
2023-01-23T16:24:00.261Z,71.63
2023-01-23T16:26:31.120Z,58.97
2023-01-23T16:29:13.535Z,64.17
2023-01-23T16:31:42.711Z,60.40
2023-01-23T16:34:12.634Z,63.90
2023-01-23T16:36:41.157Z,60.23
2023-01-23T16:39:19.326Z,58.97
2023-01-23T16:41:50.797Z,65.90
2023-01-23T16:44:22.198Z,73.17
2023-01-23T16:46:51.332Z,114.13
2023-01-23T16:49:23.841Z,63.50
2023-01-23T16:51:58.767Z,84.23
2023-01-23T16:54:27.472Z,79.73
2023-01-23T16:56:58.358Z,69.17
2023-01-23T16:59:35.823Z,69.07
2023-01-23T17:02:19.800Z,64.87
2023-01-23T17:04:54.857Z,72.07
2023-01-23T17:07:28.462Z,70.87
2023-01-23T17:09:56.998Z,80.47
2023-01-23T17:12:31.017Z,77.13
2023-01-23T17:15:05.884Z,71.93
2023-01-23T17:17:47.800Z,108.37
2023-01-23T17:20:25.168Z,83.30
2023-01-23T17:23:02.609Z,120.97
2023-01-23T17:25:59.912Z,111.40
2023-01-23T17:28:39.570Z,111.03
2023-01-23T17:31:20.691Z,81.37
2023-01-23T17:33:53.648Z,80.13
2023-01-23T17:36:33.040Z,81.27
2023-01-23T17:39:12.452Z,66.97
2023-01-23T17:41:49.034Z,72.30
2023-01-23T17:44:23.822Z,75.40
2023-01-23T17:47:00.505Z,64.73
2023-01-23T17:49:33.536Z,70.60
2023-01-23T17:52:09.249Z,68.63
2023-01-23T17:54:37.789Z,68.27
2023-01-23T17:57:06.522Z,70.63
2023-01-23T17:59:41.048Z,69.93
2023-01-23T18:02:28.540Z,80.60
2023-01-23T18:04:57.266Z,73.30
2023-01-23T18:07:27.536Z,79.57
2023-01-23T18:09:58.905Z,62.13
2023-01-23T18:12:35.192Z,64.23
2023-01-23T18:15:13.789Z,83.30
2023-01-23T18:17:58.548Z,73.00
2023-01-23T18:20:28.691Z,82.00
2023-01-23T18:23:00.010Z,108.60
2023-01-23T18:25:31.489Z,114.50
2023-01-23T18:28:05.445Z,117.13
2023-01-23T18:30:53.195Z,87.20
2023-01-23T18:33:55.081Z,66.73
2023-01-23T18:36:36.430Z,76.73
2023-01-23T18:39:40.821Z,81.73
2023-01-23T18:42:26.881Z,74.17
2023-01-23T18:45:13.868Z,72.77
2023-01-23T18:47:51.937Z,85.47
2023-01-23T18:50:27.985Z,91.23
2023-01-23T18:53:13.588Z,77.33
2023-01-23T18:55:58.338Z,76.13
2023-01-23T18:58:43.457Z,79.57
2023-01-23T19:01:31.062Z,69.03
2023-01-23T19:04:01.907Z,80.80
2023-01-23T19:06:34.902Z,81.03
2023-01-23T19:09:08.964Z,68.47
2023-01-23T19:12:02.041Z,83.17
2023-01-23T19:15:07.874Z,73.50
2023-01-23T19:17:54.123Z,76.53
2023-01-23T19:20:33.240Z,80.97
2023-01-23T19:23:32.411Z,70.30
2023-01-23T19:26:16.860Z,67.47
2023-01-23T19:28:54.644Z,66.70
2023-01-23T19:31:31.721Z,80.07
2023-01-23T19:34:07.131Z,72.27
2023-01-23T19:36:44.705Z,64.97
2023-01-23T19:39:13.566Z,65.83
2023-01-23T19:41:50.029Z,62.87
2023-01-23T19:44:22.926Z,71.80
2023-01-23T19:46:56.607Z,71.57
2023-01-23T19:49:44.427Z,71.10
2023-01-23T19:52:30.533Z,75.77
2023-01-23T19:55:09.587Z,68.63
2023-01-23T19:57:49.065Z,76.57
2023-01-23T20:00:40.949Z,67.03
2023-01-23T20:03:18.954Z,68.33
2023-01-23T20:05:54.628Z,70.90
2023-01-23T20:08:27.018Z,73.27
2023-01-23T20:10:58.912Z,63.00
2023-01-23T20:13:44.345Z,72.00
2023-01-23T20:16:20.404Z,67.33
2023-01-23T20:18:50.037Z,66.13
2023-01-23T20:21:25.855Z,77.73
2023-01-23T20:23:54.829Z,70.80
2023-01-23T20:26:24.481Z,77.83
2023-01-23T20:28:54.674Z,72.07
2023-01-23T20:31:28.250Z,71.73
2023-01-23T20:33:57.022Z,79.77
2023-01-23T20:36:27.686Z,66.10
2023-01-23T20:38:59.453Z,71.17
2023-01-23T20:41:28.200Z,70.33
2023-01-23T20:44:00.423Z,61.77
2023-01-23T20:46:51.541Z,65.00
2023-01-23T20:49:25.938Z,71.27
2023-01-23T20:52:25.569Z,76.27
2023-01-23T20:54:53.919Z,72.33
2023-01-23T20:57:22.234Z,77.57
2023-01-23T20:59:49.478Z,73.57
2023-01-23T21:02:25.614Z,78.47
2023-01-23T21:04:54.355Z,66.63
2023-01-23T21:07:23.214Z,84.83
2023-01-23T21:10:00.199Z,65.40
2023-01-23T21:12:32.631Z,63.83
2023-01-23T21:15:03.463Z,72.17
2023-01-23T21:17:37.929Z,67.97
2023-01-23T21:20:19.151Z,83.97
2023-01-23T21:23:04.975Z,68.97
2023-01-23T21:25:40.946Z,72.00
2023-01-23T21:28:14.016Z,67.60
2023-01-23T21:30:53.012Z,70.93
2023-01-23T21:33:29.927Z,76.07
2023-01-23T21:36:01.210Z,70.93
2023-01-23T21:38:33.698Z,77.80
2023-01-23T21:41:04.713Z,71.43
2023-01-23T21:43:34.816Z,91.27
2023-01-23T21:46:03.802Z,79.60
2023-01-23T21:48:36.075Z,72.83
2023-01-23T21:51:06.117Z,87.33
2023-01-23T21:53:37.167Z,84.57
2023-01-23T21:56:09.815Z,82.60
2023-01-23T21:58:48.381Z,85.47
2023-01-23T22:01:33.918Z,107.20
2023-01-23T22:04:10.156Z,99.43
2023-01-23T22:06:44.674Z,80.83
2023-01-23T22:09:17.649Z,87.93
2023-01-23T22:11:46.847Z,88.80
2023-01-23T22:14:15.621Z,90.10
2023-01-23T22:16:49.493Z,76.37
2023-01-23T22:19:25.831Z,75.40
2023-01-23T22:21:59.884Z,90.37
2023-01-23T22:24:31.703Z,83.83
2023-01-23T22:27:02.617Z,99.87
2023-01-23T22:29:33.542Z,87.87
2023-01-23T22:32:04.236Z,88.70
2023-01-23T22:34:34.435Z,92.27
2023-01-23T22:37:03.000Z,95.87
2023-01-23T22:39:36.411Z,117.40
2023-01-23T22:42:07.092Z,98.80
2023-01-23T22:44:41.395Z,86.53
2023-01-23T22:47:12.013Z,83.70
2023-01-23T22:49:46.008Z,99.03
2023-01-23T22:52:16.902Z,86.10
2023-01-23T22:54:45.412Z,91.17
2023-01-23T22:57:15.987Z,89.57
2023-01-23T22:59:51.745Z,93.50
2023-01-23T23:02:25.004Z,90.60
2023-01-23T23:04:54.889Z,94.80
